Relevés horaires Meiringen (Suisse)


Relevés horaires à Meiringen - Jeudi 20 Août 2026
Heure UTC1 Température [°C] Vent [km/h] Hum. [%] Pres.4 [hPa] Visi. [Km] Nébu. [octa] Préc.5 [mm] Cond.
2m. Res. Ros. Dir.2 Vit. Moy. Raf.3
23:00 18.2 18.2 16.9 NO 1.9 -- 5.6 92 1011.2(0.3/3h) -- -- -- --
22:00 18.2 18.2 16.7 SE 0.0 -- 3.7 91 1010.8(0.6/3h) -- -- -- --
21:00 18.4 18.4 16.9 OSO 0.0 -- 5.6 91 1010.3(0.6/3h) -- -- -- --
20:00 18.9 18.9 17.5 OSO 1.9 -- 5.6 92 1010.7(0.1/3h) -- -- -- --
19:00 18.9 18.9 17.3 NNO 1.9 -- 5.6 90 1010(1.4/3h) -- -- -- --
18:00 19.4 19.4 17.8 SE 3.7 -- 40.7 90 1009.4(1.0/3h) -- -- -- --
17:00 20.1 20.1 17.3 ESE 5.6 -- 40.7 84 1010.3 -- -- -- --
16:00 21.7 21.7 18.3 ESE 11.1 -- 16.7 81 1007.8 -- -- -- --
15:00 25.3 25.3 16.7 SE 5.6 -- 13.0 59 1006.9(-1.4/3h) -- -- -- --
14:00 25.8 25.8 14.1 ESE 1.9 -- 13.0 48 1007.3(-1.4/3h) -- -- -- --
13:00 26.1 26.1 14.6 NO 5.6 -- 9.3 49 1007.4 -- -- -- --
12:00 25.8 25.8 14.8 NO 5.6 -- 24.1 51 1008.2 -- -- -- --
11:00 24.7 24.7 14.9 ONO 11.1 -- 18.5 54 1009(0.5/3h) -- -- -- --
10:00 22.7 22.7 14.8 ENE 1.9 -- 24.1 61 1009.4 -- -- -- --
09:00 22.8 22.8 15.7 NO 1.9 -- 9.3 64 1009(0.0/3h) -- -- -- --
08:00 22.3 22.3 15.9 NNO 3.7 -- 5.6 67 1009.1(0.3/3h) -- -- -- --
07:00 20.3 20.3 15.1 SSO 1.9 -- 9.3 72 1010.1(1.0/3h) -- -- -- --
06:00 19.0 19.0 15.5 SE 1.9 -- 9.3 80 1009.9(-0.3/3h) -- -- -- --
05:00 17.6 17.6 14.6 ESE 3.7 -- 7.4 83 1009.9 -- -- -- --
04:00 17.9 17.9 15.0 OSO 3.7 -- 9.3 83 1009.6(0.5/3h) -- -- -- --
03:00 18.1 18.1 15.3 S 3.7 -- 9.3 84 1010.4(1.5/3h) -- -- -- --
02:00 18.4 18.4 15.3 S 3.7 -- 9.3 82 1009.9(1.3/3h) -- -- -- --
01:00 17.8 17.8 14.8 OSO 3.7 -- 5.6 83 1009.1 -- -- -- --
00:00 19.6 19.6 14.7 E 1.9 -- 13.0 73 1008.5(0.5/3h) -- -- -- --

1 Coordinated Universal Time. Actuellement il est 21:00 locale et 19:00 UTC.

2 Le vent souffle depuis la direction indiquée vers la direction oposée.

3 Les rafales max. sont disponible 40 min après l'heure du relevé.

4 Pour les stations d'altitude (plus de 600m) le géopotentiel du niveau le plus proche de la pression obligatoire est indiqué.

5 Les stations disposant d'un diffuseur peuvent indiquer "trace". Cela signifie que des précipitations ont touchés le sol mais que la quantité est inférieure à 0.1 mm.

Copyright

Les données affichées sur cette page sont la propriété exclusive de Météo Suisse.

Récapitulatif de la journée
Température [°C] Vent [km/h] Ensoleillement4 [h] Precipitations totale5 [mm] Pression [Hpa]
Min1 Max.2 Moy.3 Max. Min Max.
17.0 27.0 0 40.7 2 h 6 min 0 1006.9 1011.2

1 Température minimale relevée entre 18:00 UTC la veille et 18:00 UTC le jour donné.

2 Température maximale relevée entre 06:00 UTC le jour donné et 06:00 UTC le lendemain.

3 Vent moyen de la journée basé sur les relevés horaires.

4 Ensoleillement en heures relevé entre 06:00 UTC la veille et 06:00 UTC le jour donné.

5 Précipitations totales tombées entre 06:00 UTC la jour donné et 06:00 UTC le lendemain.

Graphiques horaires